sensor_id;sensor_type;location;lat;lon;timestamp;pressure;altitude;pressure_sealevel;temperature;humidity
21742;BME280;11033;47.490;11.116;2022-09-21T00:02:08;93816.34;;;6.08;88.10
21742;BME280;11033;47.490;11.116;2022-09-21T00:04:33;93811.22;;;6.16;87.27
21742;BME280;11033;47.490;11.116;2022-09-21T00:06:58;93813.09;;;5.96;89.31
21742;BME280;11033;47.490;11.116;2022-09-21T00:09:24;93816.78;;;6.03;88.34
21742;BME280;11033;47.490;11.116;2022-09-21T00:11:49;93815.59;;;5.97;88.21
21742;BME280;11033;47.490;11.116;2022-09-21T00:14:15;93814.91;;;5.86;88.85
21742;BME280;11033;47.490;11.116;2022-09-21T00:16:41;93815.75;;;5.77;89.00
21742;BME280;11033;47.490;11.116;2022-09-21T00:19:08;93807.25;;;5.74;88.49
21742;BME280;11033;47.490;11.116;2022-09-21T00:21:34;93811.13;;;5.70;89.33
21742;BME280;11033;47.490;11.116;2022-09-21T00:24:00;93828.38;;;5.54;90.20
21742;BME280;11033;47.490;11.116;2022-09-21T00:26:27;93810.63;;;5.57;90.21
21742;BME280;11033;47.490;11.116;2022-09-21T00:28:57;93814.97;;;5.66;89.41
21742;BME280;11033;47.490;11.116;2022-09-21T00:31:23;93821.03;;;5.67;88.16
21742;BME280;11033;47.490;11.116;2022-09-21T00:33:49;93815.28;;;5.63;88.18
21742;BME280;11033;47.490;11.116;2022-09-21T00:36:17;93812.84;;;5.52;89.19
21742;BME280;11033;47.490;11.116;2022-09-21T00:38:44;93817.72;;;5.28;91.05
21742;BME280;11033;47.490;11.116;2022-09-21T00:41:11;93822.94;;;5.28;90.99
21742;BME280;11033;47.490;11.116;2022-09-21T00:43:41;93820.59;;;5.34;90.90
21742;BME280;11033;47.490;11.116;2022-09-21T00:46:15;93817.56;;;5.39;90.09
21742;BME280;11033;47.490;11.116;2022-09-21T00:48:45;93809.31;;;5.34;89.88
21742;BME280;11033;47.490;11.116;2022-09-21T00:51:11;93814.25;;;5.37;89.27
21742;BME280;11033;47.490;11.116;2022-09-21T00:53:37;93815.13;;;5.28;89.78
21742;BME280;11033;47.490;11.116;2022-09-21T00:56:04;93817.03;;;5.26;89.54
21742;BME280;11033;47.490;11.116;2022-09-21T00:58:35;93814.03;;;5.21;89.58
21742;BME280;11033;47.490;11.116;2022-09-21T01:01:04;93818.00;;;5.15;90.18
21742;BME280;11033;47.490;11.116;2022-09-21T01:03:30;93812.91;;;5.14;89.43
21742;BME280;11033;47.490;11.116;2022-09-21T01:05:56;93816.25;;;4.96;91.37
21742;BME280;11033;47.490;11.116;2022-09-21T01:08:23;93818.16;;;5.04;89.84
21742;BME280;11033;47.490;11.116;2022-09-21T01:16:14;93817.91;;;4.97;90.17
21742;BME280;11033;47.490;11.116;2022-09-21T01:24:55;93812.97;;;4.94;89.95
21742;BME280;11033;47.490;11.116;2022-09-21T01:27:45;93811.59;;;4.90;89.87
21742;BME280;11033;47.490;11.116;2022-09-21T01:30:18;93812.56;;;4.89;90.33
21742;BME280;11033;47.490;11.116;2022-09-21T01:32:58;93816.81;;;4.90;89.54
21742;BME280;11033;47.490;11.116;2022-09-21T01:35:31;93812.03;;;4.76;89.52
21742;BME280;11033;47.490;11.116;2022-09-21T01:38:12;93808.03;;;4.72;88.47
21742;BME280;11033;47.490;11.116;2022-09-21T01:40:40;93809.41;;;4.76;89.95
21742;BME280;11033;47.490;11.116;2022-09-21T01:43:10;93817.66;;;4.71;89.39
21742;BME280;11033;47.490;11.116;2022-09-21T01:45:40;93815.06;;;4.62;90.51
21742;BME280;11033;47.490;11.116;2022-09-21T01:48:08;93808.84;;;4.53;91.33
21742;BME280;11033;47.490;11.116;2022-09-21T01:50:39;93809.84;;;4.62;89.97
21742;BME280;11033;47.490;11.116;2022-09-21T01:53:17;93814.09;;;4.63;89.44
21742;BME280;11033;47.490;11.116;2022-09-21T01:55:49;93811.31;;;4.45;90.26
21742;BME280;11033;47.490;11.116;2022-09-21T01:58:27;93819.28;;;4.43;90.80
21742;BME280;11033;47.490;11.116;2022-09-21T02:00:57;93810.50;;;4.44;89.91
21742;BME280;11033;47.490;11.116;2022-09-21T02:03:28;93826.81;;;4.37;90.07
21742;BME280;11033;47.490;11.116;2022-09-21T02:05:55;93820.78;;;4.36;89.77
21742;BME280;11033;47.490;11.116;2022-09-21T02:08:22;93819.81;;;4.28;91.39
21742;BME280;11033;47.490;11.116;2022-09-21T02:10:51;93821.06;;;4.33;90.16
21742;BME280;11033;47.490;11.116;2022-09-21T02:13:18;93818.56;;;4.22;91.19
21742;BME280;11033;47.490;11.116;2022-09-21T02:18:58;93826.41;;;4.22;91.42
21742;BME280;11033;47.490;11.116;2022-09-21T02:21:31;93823.50;;;4.25;90.92
21742;BME280;11033;47.490;11.116;2022-09-21T02:24:07;93825.03;;;4.28;89.48
21742;BME280;11033;47.490;11.116;2022-09-21T02:29:28;93824.19;;;4.08;91.96
21742;BME280;11033;47.490;11.116;2022-09-21T02:38:13;93820.63;;;4.09;90.81
21742;BME280;11033;47.490;11.116;2022-09-21T02:40:55;93818.41;;;4.04;90.36
21742;BME280;11033;47.490;11.116;2022-09-21T02:43:44;93819.91;;;3.97;91.36
21742;BME280;11033;47.490;11.116;2022-09-21T02:46:15;93823.63;;;4.04;90.35
21742;BME280;11033;47.490;11.116;2022-09-21T02:48:47;93826.72;;;3.89;91.19
21742;BME280;11033;47.490;11.116;2022-09-21T02:51:45;93823.81;;;3.82;92.52
21742;BME280;11033;47.490;11.116;2022-09-21T02:54:13;93819.28;;;3.84;92.03
21742;BME280;11033;47.490;11.116;2022-09-21T02:56:41;93817.09;;;3.89;90.29
21742;BME280;11033;47.490;11.116;2022-09-21T02:59:06;93825.72;;;3.80;92.05
21742;BME280;11033;47.490;11.116;2022-09-21T03:01:32;93819.13;;;3.76;92.18
21742;BME280;11033;47.490;11.116;2022-09-21T03:03:58;93824.06;;;3.69;92.02
21742;BME280;11033;47.490;11.116;2022-09-21T03:06:24;93817.34;;;3.76;90.88
21742;BME280;11033;47.490;11.116;2022-09-21T03:08:49;93824.34;;;3.76;91.29
21742;BME280;11033;47.490;11.116;2022-09-21T03:11:19;93821.88;;;3.74;90.88
21742;BME280;11033;47.490;11.116;2022-09-21T03:13:45;93823.63;;;3.64;91.90
21742;BME280;11033;47.490;11.116;2022-09-21T03:16:11;93822.13;;;3.71;90.56
21742;BME280;11033;47.490;11.116;2022-09-21T03:18:37;93820.22;;;3.73;90.42
21742;BME280;11033;47.490;11.116;2022-09-21T03:21:03;93829.25;;;3.69;90.73
21742;BME280;11033;47.490;11.116;2022-09-21T03:23:28;93822.50;;;3.57;92.00
21742;BME280;11033;47.490;11.116;2022-09-21T03:25:54;93824.56;;;3.63;91.40
21742;BME280;11033;47.490;11.116;2022-09-21T03:28:20;93829.88;;;3.52;91.30
21742;BME280;11033;47.490;11.116;2022-09-21T03:30:50;93824.56;;;3.63;90.79
21742;BME280;11033;47.490;11.116;2022-09-21T03:33:16;93828.94;;;3.53;92.27
21742;BME280;11033;47.490;11.116;2022-09-21T03:35:41;93833.00;;;3.46;93.20
21742;BME280;11033;47.490;11.116;2022-09-21T03:38:08;93835.78;;;3.54;92.25
21742;BME280;11033;47.490;11.116;2022-09-21T03:40:33;93833.19;;;3.54;93.08
21742;BME280;11033;47.490;11.116;2022-09-21T03:42:59;93835.53;;;3.57;93.08
21742;BME280;11033;47.490;11.116;2022-09-21T03:45:24;93829.34;;;3.58;92.91
21742;BME280;11033;47.490;11.116;2022-09-21T03:47:56;93830.56;;;3.54;92.91
21742;BME280;11033;47.490;11.116;2022-09-21T03:50:23;93828.63;;;3.46;93.70
21742;BME280;11033;47.490;11.116;2022-09-21T03:52:48;93826.19;;;3.55;92.93
21742;BME280;11033;47.490;11.116;2022-09-21T03:55:14;93832.22;;;3.55;92.38
21742;BME280;11033;47.490;11.116;2022-09-21T03:57:39;93831.88;;;3.39;93.64
21742;BME280;11033;47.490;11.116;2022-09-21T04:00:07;93836.81;;;3.42;93.24
21742;BME280;11033;47.490;11.116;2022-09-21T04:02:34;93834.75;;;3.36;92.95
21742;BME280;11033;47.490;11.116;2022-09-21T04:04:59;93840.91;;;3.35;92.70
21742;BME280;11033;47.490;11.116;2022-09-21T04:07:24;93837.59;;;3.33;93.65
21742;BME280;11033;47.490;11.116;2022-09-21T04:09:50;93845.34;;;3.44;93.22
21742;BME280;11033;47.490;11.116;2022-09-21T04:12:16;93833.28;;;3.43;92.70
21742;BME280;11033;47.490;11.116;2022-09-21T04:14:41;93842.28;;;3.39;93.55
21742;BME280;11033;47.490;11.116;2022-09-21T04:17:06;93837.75;;;3.31;93.59
21742;BME280;11033;47.490;11.116;2022-09-21T04:19:31;93846.38;;;3.32;92.67
21742;BME280;11033;47.490;11.116;2022-09-21T04:21:57;93846.88;;;3.26;93.58
21742;BME280;11033;47.490;11.116;2022-09-21T04:24:22;93839.50;;;3.31;92.50
21742;BME280;11033;47.490;11.116;2022-09-21T04:26:48;93843.25;;;3.38;91.48
21742;BME280;11033;47.490;11.116;2022-09-21T04:29:14;93852.31;;;3.23;93.05
21742;BME280;11033;47.490;11.116;2022-09-21T04:31:39;93849.41;;;3.37;91.38
21742;BME280;11033;47.490;11.116;2022-09-21T04:34:05;93860.34;;;3.31;91.60
21742;BME280;11033;47.490;11.116;2022-09-21T04:36:30;93854.44;;;3.29;91.76
21742;BME280;11033;47.490;11.116;2022-09-21T04:38:58;93864.97;;;3.27;91.47
21742;BME280;11033;47.490;11.116;2022-09-21T04:41:24;93859.25;;;3.12;92.54
21742;BME280;11033;47.490;11.116;2022-09-21T04:43:49;93863.75;;;3.10;92.87
21742;BME280;11033;47.490;11.116;2022-09-21T04:46:16;93855.00;;;3.11;92.59
21742;BME280;11033;47.490;11.116;2022-09-21T04:48:42;93855.75;;;3.02;92.46
21742;BME280;11033;47.490;11.116;2022-09-21T04:51:09;93858.81;;;3.07;91.53
21742;BME280;11033;47.490;11.116;2022-09-21T04:53:36;93849.78;;;3.11;91.02
21742;BME280;11033;47.490;11.116;2022-09-21T04:56:02;93863.19;;;3.07;91.78
21742;BME280;11033;47.490;11.116;2022-09-21T04:58:28;93853.34;;;3.10;91.51
21742;BME280;11033;47.490;11.116;2022-09-21T05:00:53;93855.25;;;3.08;91.25
21742;BME280;11033;47.490;11.116;2022-09-21T05:03:20;93862.94;;;3.10;91.43
21742;BME280;11033;47.490;11.116;2022-09-21T05:05:52;93862.63;;;3.03;91.26
21742;BME280;11033;47.490;11.116;2022-09-21T05:08:19;93865.97;;;3.15;90.25
21742;BME280;11033;47.490;11.116;2022-09-21T05:11:05;93870.03;;;3.08;91.98
21742;BME280;11033;47.490;11.116;2022-09-21T05:13:31;93865.66;;;3.08;92.39
21742;BME280;11033;47.490;11.116;2022-09-21T05:15:57;93866.16;;;3.02;92.27
21742;BME280;11033;47.490;11.116;2022-09-21T05:18:22;93869.22;;;3.07;93.05
21742;BME280;11033;47.490;11.116;2022-09-21T05:20:57;93872.50;;;3.09;92.45
21742;BME280;11033;47.490;11.116;2022-09-21T05:23:24;93873.78;;;3.15;91.51
21742;BME280;11033;47.490;11.116;2022-09-21T05:25:50;93868.25;;;3.08;91.73
21742;BME280;11033;47.490;11.116;2022-09-21T05:28:16;93874.47;;;3.17;91.35
21742;BME280;11033;47.490;11.116;2022-09-21T05:30:49;93882.66;;;3.12;91.68
21742;BME280;11033;47.490;11.116;2022-09-21T05:33:18;93876.44;;;3.25;90.99
21742;BME280;11033;47.490;11.116;2022-09-21T05:36:01;93874.31;;;3.30;90.53
21742;BME280;11033;47.490;11.116;2022-09-21T05:38:29;93871.72;;;3.30;90.57
21742;BME280;11033;47.490;11.116;2022-09-21T05:40:54;93878.44;;;3.32;90.13
21742;BME280;11033;47.490;11.116;2022-09-21T05:43:20;93873.16;;;3.43;89.50
21742;BME280;11033;47.490;11.116;2022-09-21T05:45:48;93875.75;;;3.43;89.23
21742;BME280;11033;47.490;11.116;2022-09-21T05:48:22;93881.66;;;3.25;91.72
21742;BME280;11033;47.490;11.116;2022-09-21T05:56:35;93877.09;;;3.38;90.45
21742;BME280;11033;47.490;11.116;2022-09-21T06:01:58;93886.13;;;3.34;91.05
21742;BME280;11033;47.490;11.116;2022-09-21T06:04:28;93878.78;;;3.48;89.39
21742;BME280;11033;47.490;11.116;2022-09-21T06:06:53;93875.25;;;3.49;89.82
21742;BME280;11033;47.490;11.116;2022-09-21T06:09:19;93874.41;;;3.49;90.29
21742;BME280;11033;47.490;11.116;2022-09-21T06:11:45;93872.16;;;3.65;88.97
21742;BME280;11033;47.490;11.116;2022-09-21T06:14:10;93873.25;;;3.63;89.93
21742;BME280;11033;47.490;11.116;2022-09-21T06:16:37;93875.59;;;3.66;89.39
21742;BME280;11033;47.490;11.116;2022-09-21T06:19:02;93874.50;;;3.68;88.90
21742;BME280;11033;47.490;11.116;2022-09-21T06:21:27;93875.28;;;3.59;89.70
21742;BME280;11033;47.490;11.116;2022-09-21T06:23:53;93871.72;;;3.60;90.45
21742;BME280;11033;47.490;11.116;2022-09-21T06:26:18;93870.13;;;3.69;89.19
21742;BME280;11033;47.490;11.116;2022-09-21T06:28:43;93876.16;;;3.69;89.77
21742;BME280;11033;47.490;11.116;2022-09-21T06:31:08;93874.50;;;3.68;90.98
21742;BME280;11033;47.490;11.116;2022-09-21T06:33:34;93879.56;;;3.70;90.80
21742;BME280;11033;47.490;11.116;2022-09-21T06:36:02;93872.88;;;3.77;91.10
21742;BME280;11033;47.490;11.116;2022-09-21T06:38:27;93878.13;;;3.87;89.75
21742;BME280;11033;47.490;11.116;2022-09-21T06:40:53;93875.97;;;3.92;89.82
21742;BME280;11033;47.490;11.116;2022-09-21T06:43:19;93878.59;;;3.92;89.99
21742;BME280;11033;47.490;11.116;2022-09-21T06:45:56;93876.69;;;3.94;90.51
21742;BME280;11033;47.490;11.116;2022-09-21T06:48:21;93879.03;;;3.97;90.48
21742;BME280;11033;47.490;11.116;2022-09-21T06:50:47;93880.97;;;4.04;90.56
21742;BME280;11033;47.490;11.116;2022-09-21T06:53:13;93876.88;;;4.11;90.29
21742;BME280;11033;47.490;11.116;2022-09-21T06:55:39;93882.09;;;4.21;89.16
21742;BME280;11033;47.490;11.116;2022-09-21T06:58:05;93878.53;;;4.22;90.09
21742;BME280;11033;47.490;11.116;2022-09-21T07:00:31;93877.31;;;4.26;90.74
21742;BME280;11033;47.490;11.116;2022-09-21T07:02:57;93876.09;;;4.30;91.17
21742;BME280;11033;47.490;11.116;2022-09-21T07:05:22;93871.72;;;4.40;90.41
21742;BME280;11033;47.490;11.116;2022-09-21T07:07:48;93870.19;;;4.47;89.50
21742;BME280;11033;47.490;11.116;2022-09-21T07:10:13;93875.59;;;4.56;89.94
21742;BME280;11033;47.490;11.116;2022-09-21T07:12:38;93868.88;;;4.63;89.85
21742;BME280;11033;47.490;11.116;2022-09-21T07:15:05;93861.06;;;4.72;88.61
21742;BME280;11033;47.490;11.116;2022-09-21T07:17:32;93858.84;;;4.77;88.47
21742;BME280;11033;47.490;11.116;2022-09-21T07:19:57;93853.91;;;4.84;89.45
21742;BME280;11033;47.490;11.116;2022-09-21T07:22:22;93862.97;;;4.90;88.29
21742;BME280;11033;47.490;11.116;2022-09-21T07:24:48;93851.16;;;4.95;88.70
21742;BME280;11033;47.490;11.116;2022-09-21T07:27:13;93858.84;;;5.06;89.09
21742;BME280;11033;47.490;11.116;2022-09-21T07:29:39;93854.16;;;5.10;88.92
21742;BME280;11033;47.490;11.116;2022-09-21T07:32:04;93857.16;;;5.15;88.92
21742;BME280;11033;47.490;11.116;2022-09-21T07:34:34;93862.41;;;5.25;88.95
21742;BME280;11033;47.490;11.116;2022-09-21T07:36:59;93863.50;;;5.32;88.11
21742;BME280;11033;47.490;11.116;2022-09-21T07:39:24;93864.56;;;5.39;88.15
21742;BME280;11033;47.490;11.116;2022-09-21T07:41:49;93860.78;;;5.61;88.97
21742;BME280;11033;47.490;11.116;2022-09-21T07:44:15;93860.66;;;5.62;88.13
21742;BME280;11033;47.490;11.116;2022-09-21T07:46:41;93862.03;;;5.66;87.66
21742;BME280;11033;47.490;11.116;2022-09-21T07:49:06;93867.94;;;5.68;87.01
21742;BME280;11033;47.490;11.116;2022-09-21T07:51:31;93864.16;;;5.81;87.11
21742;BME280;11033;47.490;11.116;2022-09-21T07:53:57;93868.28;;;5.83;86.67
21742;BME280;11033;47.490;11.116;2022-09-21T07:56:22;93861.91;;;6.05;85.35
21742;BME280;11033;47.490;11.116;2022-09-21T07:58:48;93864.25;;;6.08;85.17
21742;BME280;11033;47.490;11.116;2022-09-21T08:01:37;93861.81;;;6.24;84.76
21742;BME280;11033;47.490;11.116;2022-09-21T08:04:04;93858.41;;;6.42;84.78
21742;BME280;11033;47.490;11.116;2022-09-21T08:06:31;93855.56;;;6.35;85.14
21742;BME280;11033;47.490;11.116;2022-09-21T08:09:01;93857.94;;;6.56;84.41
21742;BME280;11033;47.490;11.116;2022-09-21T08:11:28;93849.09;;;6.57;83.54
21742;BME280;11033;47.490;11.116;2022-09-21T08:13:56;93855.63;;;6.71;84.25
21742;BME280;11033;47.490;11.116;2022-09-21T08:16:22;93851.59;;;6.76;83.68
21742;BME280;11033;47.490;11.116;2022-09-21T08:18:47;93846.50;;;6.92;82.55
21742;BME280;11033;47.490;11.116;2022-09-21T08:21:13;93852.16;;;7.06;82.41
21742;BME280;11033;47.490;11.116;2022-09-21T08:23:38;93851.41;;;7.31;80.11
21742;BME280;11033;47.490;11.116;2022-09-21T08:26:06;93841.13;;;7.38;79.59
21742;BME280;11033;47.490;11.116;2022-09-21T08:28:33;93839.91;;;7.50;78.02
21742;BME280;11033;47.490;11.116;2022-09-21T08:31:04;93847.81;;;7.32;80.92
21742;BME280;11033;47.490;11.116;2022-09-21T08:33:30;93836.50;;;7.57;81.45
21742;BME280;11033;47.490;11.116;2022-09-21T08:35:58;93842.16;;;7.71;79.34
21742;BME280;11033;47.490;11.116;2022-09-21T08:38:24;93846.19;;;7.83;78.27
21742;BME280;11033;47.490;11.116;2022-09-21T08:40:51;93834.63;;;8.02;77.17
21742;BME280;11033;47.490;11.116;2022-09-21T08:43:35;93842.97;;;7.97;77.55
21742;BME280;11033;47.490;11.116;2022-09-21T08:46:10;93836.44;;;8.01;78.14
21742;BME280;11033;47.490;11.116;2022-09-21T08:48:43;93832.84;;;8.10;79.68
21742;BME280;11033;47.490;11.116;2022-09-21T08:51:16;93836.91;;;8.39;80.09
21742;BME280;11033;47.490;11.116;2022-09-21T08:53:48;93839.06;;;8.43;79.98
21742;BME280;11033;47.490;11.116;2022-09-21T08:56:15;93827.81;;;8.67;80.24
21742;BME280;11033;47.490;11.116;2022-09-21T08:58:41;93833.75;;;8.85;78.20
21742;BME280;11033;47.490;11.116;2022-09-21T09:09:44;93823.59;;;9.47;75.75
21742;BME280;11033;47.490;11.116;2022-09-21T09:12:56;93819.59;;;9.84;71.59
21742;BME280;11033;47.490;11.116;2022-09-21T09:15:47;93825.44;;;10.10;69.48
21742;BME280;11033;47.490;11.116;2022-09-21T09:21:21;93815.81;;;10.42;68.57
21742;BME280;11033;47.490;11.116;2022-09-21T09:24:14;93813.91;;;10.59;69.31
21742;BME280;11033;47.490;11.116;2022-09-21T09:26:48;93804.22;;;10.82;66.39
21742;BME280;11033;47.490;11.116;2022-09-21T09:29:25;93807.53;;;10.99;69.79
21742;BME280;11033;47.490;11.116;2022-09-21T09:31:53;93804.09;;;11.21;68.40
21742;BME280;11033;47.490;11.116;2022-09-21T09:34:28;93799.63;;;11.44;64.75
21742;BME280;11033;47.490;11.116;2022-09-21T09:36:58;93792.63;;;11.52;67.11
21742;BME280;11033;47.490;11.116;2022-09-21T09:39:27;93794.22;;;11.75;65.53
21742;BME280;11033;47.490;11.116;2022-09-21T09:47:59;93786.22;;;12.43;64.80
21742;BME280;11033;47.490;11.116;2022-09-21T09:50:28;93779.41;;;12.69;64.25
21742;BME280;11033;47.490;11.116;2022-09-21T09:53:09;93768.66;;;12.92;63.33
21742;BME280;11033;47.490;11.116;2022-09-21T09:55:41;93767.03;;;13.13;65.19
21742;BME280;11033;47.490;11.116;2022-09-21T10:00:42;93760.09;;;13.54;64.23
21742;BME280;11033;47.490;11.116;2022-09-21T10:03:16;93755.72;;;13.68;65.66
21742;BME280;11033;47.490;11.116;2022-09-21T10:05:42;93747.81;;;13.75;63.43
21742;BME280;11033;47.490;11.116;2022-09-21T10:10:51;93748.25;;;14.13;59.87
21742;BME280;11033;47.490;11.116;2022-09-21T10:13:29;93743.47;;;14.36;60.81
21742;BME280;11033;47.490;11.116;2022-09-21T10:16:00;93741.88;;;14.42;57.86
21742;BME280;11033;47.490;11.116;2022-09-21T10:18:33;93740.56;;;14.79;61.58
21742;BME280;11033;47.490;11.116;2022-09-21T10:21:05;93738.13;;;14.84;61.34
21742;BME280;11033;47.490;11.116;2022-09-21T10:23:31;93736.56;;;15.09;59.33
21742;BME280;11033;47.490;11.116;2022-09-21T10:26:07;93734.13;;;15.28;61.34
21742;BME280;11033;47.490;11.116;2022-09-21T10:28:34;93727.78;;;15.55;62.25
21742;BME280;11033;47.490;11.116;2022-09-21T10:31:18;93722.28;;;15.57;61.90
21742;BME280;11033;47.490;11.116;2022-09-21T10:33:54;93729.66;;;15.74;59.13
21742;BME280;11033;47.490;11.116;2022-09-21T10:36:32;93715.50;;;16.00;57.19
21742;BME280;11033;47.490;11.116;2022-09-21T10:41:37;93700.84;;;16.42;59.46
21742;BME280;11033;47.490;11.116;2022-09-21T10:44:03;93700.22;;;16.47;57.66
21742;BME280;11033;47.490;11.116;2022-09-21T10:46:33;93697.13;;;16.50;55.30
21742;BME280;11033;47.490;11.116;2022-09-21T10:49:01;93696.19;;;16.76;53.28
21742;BME280;11033;47.490;11.116;2022-09-21T10:51:28;93690.28;;;17.05;56.64
21742;BME280;11033;47.490;11.116;2022-09-21T10:53:54;93696.59;;;17.36;56.08
21742;BME280;11033;47.490;11.116;2022-09-21T10:56:20;93690.25;;;17.62;56.82
21742;BME280;11033;47.490;11.116;2022-09-21T10:59:09;93692.25;;;18.46;55.94
21742;BME280;11033;47.490;11.116;2022-09-21T11:01:42;93687.34;;;19.75;54.98
21742;BME280;11033;47.490;11.116;2022-09-21T11:04:18;93682.78;;;20.34;51.13
21742;BME280;11033;47.490;11.116;2022-09-21T11:06:50;93682.34;;;20.65;50.23
21742;BME280;11033;47.490;11.116;2022-09-21T11:11:53;93674.47;;;22.33;47.92
21742;BME280;11033;47.490;11.116;2022-09-21T11:14:33;93672.16;;;22.41;46.44
21742;BME280;11033;47.490;11.116;2022-09-21T11:17:08;93670.97;;;22.98;42.77
21742;BME280;11033;47.490;11.116;2022-09-21T11:22:41;93669.59;;;24.65;42.01
21742;BME280;11033;47.490;11.116;2022-09-21T11:25:20;93658.53;;;25.55;41.36
21742;BME280;11033;47.490;11.116;2022-09-21T11:27:53;93660.66;;;26.24;40.25
21742;BME280;11033;47.490;11.116;2022-09-21T11:30:22;93654.25;;;26.90;37.26
21742;BME280;11033;47.490;11.116;2022-09-21T11:35:53;93646.41;;;27.82;37.68
21742;BME280;11033;47.490;11.116;2022-09-21T11:43:49;93635.38;;;29.64;33.11
21742;BME280;11033;47.490;11.116;2022-09-21T11:51:40;93621.16;;;29.86;29.19
21742;BME280;11033;47.490;11.116;2022-09-21T12:18:11;93595.50;;;31.07;28.83
21742;BME280;11033;47.490;11.116;2022-09-21T12:25:57;93591.22;;;32.71;24.50
21742;BME280;11033;47.490;11.116;2022-09-21T12:28:35;93590.91;;;33.47;28.45
21742;BME280;11033;47.490;11.116;2022-09-21T12:31:13;93594.28;;;33.44;28.28
21742;BME280;11033;47.490;11.116;2022-09-21T12:33:49;93588.31;;;33.67;25.35
21742;BME280;11033;47.490;11.116;2022-09-21T12:36:19;93589.09;;;33.25;25.21
21742;BME280;11033;47.490;11.116;2022-09-21T12:41:38;93585.28;;;34.03;25.12
21742;BME280;11033;47.490;11.116;2022-09-21T12:44:34;93577.84;;;34.68;24.54
21742;BME280;11033;47.490;11.116;2022-09-21T12:47:21;93574.81;;;33.19;24.11
21742;BME280;11033;47.490;11.116;2022-09-21T12:49:52;93573.03;;;33.75;25.42
21742;BME280;11033;47.490;11.116;2022-09-21T12:52:25;93570.34;;;33.84;23.98
21742;BME280;11033;47.490;11.116;2022-09-21T12:55:02;93574.19;;;34.93;24.68
21742;BME280;11033;47.490;11.116;2022-09-21T12:57:46;93562.72;;;34.07;24.16
21742;BME280;11033;47.490;11.116;2022-09-21T13:00:18;93567.31;;;36.45;25.88
21742;BME280;11033;47.490;11.116;2022-09-21T13:05:22;93568.06;;;35.47;24.41
21742;BME280;11033;47.490;11.116;2022-09-21T13:12:59;93554.09;;;35.81;21.95
21742;BME280;11033;47.490;11.116;2022-09-21T13:15:29;93560.22;;;31.74;22.38
21742;BME280;11033;47.490;11.116;2022-09-21T13:18:00;93561.28;;;34.64;25.54
21742;BME280;11033;47.490;11.116;2022-09-21T13:20:27;93558.75;;;36.26;23.28
21742;BME280;11033;47.490;11.116;2022-09-21T13:22:59;93559.56;;;35.10;23.96
21742;BME280;11033;47.490;11.116;2022-09-21T13:25:28;93545.84;;;35.40;21.21
21742;BME280;11033;47.490;11.116;2022-09-21T13:30:38;93553.38;;;37.11;25.34
21742;BME280;11033;47.490;11.116;2022-09-21T13:41:00;93544.38;;;37.51;22.04
21742;BME280;11033;47.490;11.116;2022-09-21T13:48:56;93546.19;;;36.25;23.32
21742;BME280;11033;47.490;11.116;2022-09-21T13:51:22;93543.53;;;36.49;22.80
21742;BME280;11033;47.490;11.116;2022-09-21T13:53:53;93537.03;;;38.11;23.48
21742;BME280;11033;47.490;11.116;2022-09-21T13:56:23;93550.03;;;36.12;21.66
21742;BME280;11033;47.490;11.116;2022-09-21T13:58:51;93547.84;;;38.04;21.48
21742;BME280;11033;47.490;11.116;2022-09-21T14:01:23;93544.44;;;36.90;22.30
21742;BME280;11033;47.490;11.116;2022-09-21T14:03:58;93545.16;;;37.92;22.59
21742;BME280;11033;47.490;11.116;2022-09-21T14:06:27;93542.03;;;37.13;21.60
21742;BME280;11033;47.490;11.116;2022-09-21T14:09:00;93545.94;;;37.77;21.57
21742;BME280;11033;47.490;11.116;2022-09-21T14:11:41;93541.78;;;35.46;19.75
21742;BME280;11033;47.490;11.116;2022-09-21T14:14:25;93541.88;;;36.36;21.97
21742;BME280;11033;47.490;11.116;2022-09-21T14:16:57;93549.00;;;38.03;21.30
21742;BME280;11033;47.490;11.116;2022-09-21T14:27:31;93530.41;;;36.22;21.47
21742;BME280;11033;47.490;11.116;2022-09-21T14:30:00;93535.94;;;37.84;22.59
21742;BME280;11033;47.490;11.116;2022-09-21T14:32:33;93534.38;;;36.70;22.07
21742;BME280;11033;47.490;11.116;2022-09-21T14:35:11;93550.09;;;38.58;21.28
21742;BME280;11033;47.490;11.116;2022-09-21T14:37:43;93544.97;;;36.35;21.29
21742;BME280;11033;47.490;11.116;2022-09-21T14:40:21;93541.47;;;37.20;21.66
21742;BME280;11033;47.490;11.116;2022-09-21T14:42:52;93542.38;;;36.99;21.26
21742;BME280;11033;47.490;11.116;2022-09-21T14:45:23;93539.63;;;37.11;20.78
21742;BME280;11033;47.490;11.116;2022-09-21T14:50:29;93543.25;;;36.30;21.07
21742;BME280;11033;47.490;11.116;2022-09-21T15:01:34;93535.50;;;37.05;21.22
21742;BME280;11033;47.490;11.116;2022-09-21T15:04:18;93535.88;;;32.88;23.80
21742;BME280;11033;47.490;11.116;2022-09-21T15:12:54;93535.66;;;36.85;21.10
21742;BME280;11033;47.490;11.116;2022-09-21T15:18:21;93532.56;;;35.00;23.01
21742;BME280;11033;47.490;11.116;2022-09-21T15:21:00;93530.75;;;34.45;22.30
21742;BME280;11033;47.490;11.116;2022-09-21T15:23:32;93541.38;;;35.35;21.61
21742;BME280;11033;47.490;11.116;2022-09-21T15:26:01;93536.09;;;36.17;22.42
21742;BME280;11033;47.490;11.116;2022-09-21T15:28:35;93543.00;;;34.77;22.19
21742;BME280;11033;47.490;11.116;2022-09-21T15:31:01;93542.94;;;35.99;22.63
21742;BME280;11033;47.490;11.116;2022-09-21T15:33:26;93536.22;;;34.45;23.28
21742;BME280;11033;47.490;11.116;2022-09-21T15:35:52;93535.31;;;34.24;23.54
21742;BME280;11033;47.490;11.116;2022-09-21T15:38:29;93553.66;;;34.23;22.77
21742;BME280;11033;47.490;11.116;2022-09-21T15:40:55;93543.13;;;34.05;23.02
21742;BME280;11033;47.490;11.116;2022-09-21T15:43:21;93541.56;;;33.34;23.74
21742;BME280;11033;47.490;11.116;2022-09-21T15:53:34;93543.16;;;31.46;25.67
21742;BME280;11033;47.490;11.116;2022-09-21T15:56:02;93540.63;;;31.72;24.03
21742;BME280;11033;47.490;11.116;2022-09-21T15:58:33;93537.09;;;28.68;27.53
21742;BME280;11033;47.490;11.116;2022-09-21T16:01:03;93535.56;;;26.29;29.84